sensor_id;sensor_type;location;lat;lon;timestamp;temperature;humidity
7476;DHT22;3779;49.216;8.650;2023-03-01T00:02:27;16.90;24.00
7476;DHT22;3779;49.216;8.650;2023-03-01T00:05:13;17.20;24.00
7476;DHT22;3779;49.216;8.650;2023-03-01T00:07:59;17.00;23.90
7476;DHT22;3779;49.216;8.650;2023-03-01T00:10:45;16.80;24.30
7476;DHT22;3779;49.216;8.650;2023-03-01T00:13:33;16.80;24.00
7476;DHT22;3779;49.216;8.650;2023-03-01T00:16:26;16.80;24.20
7476;DHT22;3779;49.216;8.650;2023-03-01T00:19:21;16.80;23.80
7476;DHT22;3779;49.216;8.650;2023-03-01T00:22:09;16.80;24.00
7476;DHT22;3779;49.216;8.650;2023-03-01T00:24:55;16.80;23.70
7476;DHT22;3779;49.216;8.650;2023-03-01T00:27:41;16.80;23.90
7476;DHT22;3779;49.216;8.650;2023-03-01T00:30:27;16.80;23.90
7476;DHT22;3779;49.216;8.650;2023-03-01T00:33:14;16.80;24.00
7476;DHT22;3779;49.216;8.650;2023-03-01T00:36:01;16.80;23.70
7476;DHT22;3779;49.216;8.650;2023-03-01T00:38:48;16.80;24.00
7476;DHT22;3779;49.216;8.650;2023-03-01T00:41:33;16.80;23.90
7476;DHT22;3779;49.216;8.650;2023-03-01T00:44:21;16.80;24.10
7476;DHT22;3779;49.216;8.650;2023-03-01T00:47:06;17.10;24.50
7476;DHT22;3779;49.216;8.650;2023-03-01T00:49:53;16.80;23.80
7476;DHT22;3779;49.216;8.650;2023-03-01T00:52:41;16.80;24.40
7476;DHT22;3779;49.216;8.650;2023-03-01T00:55:27;16.80;24.30
7476;DHT22;3779;49.216;8.650;2023-03-01T00:58:13;16.80;24.40
7476;DHT22;3779;49.216;8.650;2023-03-01T01:01:00;17.00;24.40
7476;DHT22;3779;49.216;8.650;2023-03-01T01:06:42;16.80;24.70
7476;DHT22;3779;49.216;8.650;2023-03-01T01:09:28;16.80;24.30
7476;DHT22;3779;49.216;8.650;2023-03-01T01:12:15;16.80;24.20
7476;DHT22;3779;49.216;8.650;2023-03-01T01:15:01;16.80;24.30
7476;DHT22;3779;49.216;8.650;2023-03-01T01:17:48;16.80;24.60
7476;DHT22;3779;49.216;8.650;2023-03-01T01:20:35;17.20;24.90
7476;DHT22;3779;49.216;8.650;2023-03-01T01:23:21;16.70;24.90
7476;DHT22;3779;49.216;8.650;2023-03-01T01:26:13;16.90;25.40
7476;DHT22;3779;49.216;8.650;2023-03-01T01:29:03;16.90;25.40
7476;DHT22;3779;49.216;8.650;2023-03-01T01:31:50;16.90;25.00
7476;DHT22;3779;49.216;8.650;2023-03-01T01:34:36;17.00;25.30
7476;DHT22;3779;49.216;8.650;2023-03-01T01:37:22;16.90;24.80
7476;DHT22;3779;49.216;8.650;2023-03-01T01:40:11;16.90;24.80
7476;DHT22;3779;49.216;8.650;2023-03-01T01:42:58;16.90;24.40
7476;DHT22;3779;49.216;8.650;2023-03-01T01:45:45;16.90;24.50
7476;DHT22;3779;49.216;8.650;2023-03-01T01:48:42;17.30;25.00
7476;DHT22;3779;49.216;8.650;2023-03-01T01:51:39;16.80;24.80
7476;DHT22;3779;49.216;8.650;2023-03-01T01:54:33;16.80;24.70
7476;DHT22;3779;49.216;8.650;2023-03-01T01:57:27;16.90;25.00
7476;DHT22;3779;49.216;8.650;2023-03-01T02:00:21;16.90;25.00
7476;DHT22;3779;49.216;8.650;2023-03-01T02:03:11;16.90;24.80
7476;DHT22;3779;49.216;8.650;2023-03-01T02:08:50;16.80;24.80
7476;DHT22;3779;49.216;8.650;2023-03-01T02:11:37;16.80;24.90
7476;DHT22;3779;49.216;8.650;2023-03-01T02:14:23;16.80;24.90
7476;DHT22;3779;49.216;8.650;2023-03-01T02:17:12;16.80;24.80
7476;DHT22;3779;49.216;8.650;2023-03-01T02:20:14;16.80;25.00
7476;DHT22;3779;49.216;8.650;2023-03-01T02:23:03;16.80;24.90
7476;DHT22;3779;49.216;8.650;2023-03-01T02:25:54;16.80;24.80
7476;DHT22;3779;49.216;8.650;2023-03-01T02:28:43;16.80;24.70
7476;DHT22;3779;49.216;8.650;2023-03-01T02:31:30;16.80;24.70
7476;DHT22;3779;49.216;8.650;2023-03-01T02:34:31;16.80;24.50
7476;DHT22;3779;49.216;8.650;2023-03-01T02:37:18;16.70;24.60
7476;DHT22;3779;49.216;8.650;2023-03-01T02:40:16;16.70;24.60
7476;DHT22;3779;49.216;8.650;2023-03-01T02:43:04;16.70;24.60
7476;DHT22;3779;49.216;8.650;2023-03-01T02:45:53;16.70;24.50
7476;DHT22;3779;49.216;8.650;2023-03-01T02:48:47;16.80;24.30
7476;DHT22;3779;49.216;8.650;2023-03-01T02:51:45;16.70;24.40
7476;DHT22;3779;49.216;8.650;2023-03-01T02:54:41;16.70;24.60
7476;DHT22;3779;49.216;8.650;2023-03-01T02:57:31;16.70;24.60
7476;DHT22;3779;49.216;8.650;2023-03-01T03:00:23;16.70;24.80
7476;DHT22;3779;49.216;8.650;2023-03-01T03:03:14;16.70;24.90
7476;DHT22;3779;49.216;8.650;2023-03-01T03:06:02;16.70;24.90
7476;DHT22;3779;49.216;8.650;2023-03-01T03:08:50;16.80;24.70
7476;DHT22;3779;49.216;8.650;2023-03-01T03:11:37;16.70;24.60
7476;DHT22;3779;49.216;8.650;2023-03-01T03:14:24;16.70;24.30
7476;DHT22;3779;49.216;8.650;2023-03-01T03:17:10;16.70;24.10
7476;DHT22;3779;49.216;8.650;2023-03-01T03:19:58;16.70;24.50
7476;DHT22;3779;49.216;8.650;2023-03-01T03:22:48;16.70;24.30
7476;DHT22;3779;49.216;8.650;2023-03-01T03:25:35;16.70;24.30
7476;DHT22;3779;49.216;8.650;2023-03-01T03:28:25;16.70;24.10
7476;DHT22;3779;49.216;8.650;2023-03-01T03:31:12;16.70;24.10
7476;DHT22;3779;49.216;8.650;2023-03-01T03:33:58;16.70;24.10
7476;DHT22;3779;49.216;8.650;2023-03-01T03:36:46;16.60;24.30
7476;DHT22;3779;49.216;8.650;2023-03-01T03:39:32;16.70;24.30
7476;DHT22;3779;49.216;8.650;2023-03-01T03:42:21;16.70;24.80
7476;DHT22;3779;49.216;8.650;2023-03-01T03:45:08;16.70;24.70
7476;DHT22;3779;49.216;8.650;2023-03-01T03:47:54;16.70;24.90
7476;DHT22;3779;49.216;8.650;2023-03-01T03:50:40;16.70;24.50
7476;DHT22;3779;49.216;8.650;2023-03-01T03:53:27;16.70;25.00
7476;DHT22;3779;49.216;8.650;2023-03-01T03:56:14;16.90;25.10
7476;DHT22;3779;49.216;8.650;2023-03-01T03:59:00;16.70;24.90
7476;DHT22;3779;49.216;8.650;2023-03-01T04:01:46;16.80;24.90
7476;DHT22;3779;49.216;8.650;2023-03-01T04:04:32;16.80;25.10
7476;DHT22;3779;49.216;8.650;2023-03-01T04:07:19;16.80;24.80
7476;DHT22;3779;49.216;8.650;2023-03-01T04:10:07;16.80;25.00
7476;DHT22;3779;49.216;8.650;2023-03-01T04:12:55;16.80;25.20
7476;DHT22;3779;49.216;8.650;2023-03-01T04:15:45;16.80;24.90
7476;DHT22;3779;49.216;8.650;2023-03-01T04:18:33;16.80;24.70
7476;DHT22;3779;49.216;8.650;2023-03-01T04:21:20;16.70;24.50
7476;DHT22;3779;49.216;8.650;2023-03-01T04:24:07;16.80;24.90
7476;DHT22;3779;49.216;8.650;2023-03-01T04:26:55;16.70;24.90
7476;DHT22;3779;49.216;8.650;2023-03-01T04:29:40;16.70;24.90
7476;DHT22;3779;49.216;8.650;2023-03-01T04:32:27;16.70;24.90
7476;DHT22;3779;49.216;8.650;2023-03-01T04:35:13;16.80;25.10
7476;DHT22;3779;49.216;8.650;2023-03-01T04:37:59;16.80;24.90
7476;DHT22;3779;49.216;8.650;2023-03-01T04:40:45;16.80;24.70
7476;DHT22;3779;49.216;8.650;2023-03-01T04:43:31;16.80;24.50
7476;DHT22;3779;49.216;8.650;2023-03-01T04:46:19;16.80;24.80
7476;DHT22;3779;49.216;8.650;2023-03-01T04:49:06;16.80;25.00
7476;DHT22;3779;49.216;8.650;2023-03-01T04:51:52;16.70;24.90
7476;DHT22;3779;49.216;8.650;2023-03-01T04:54:40;16.80;25.20
7476;DHT22;3779;49.216;8.650;2023-03-01T04:57:27;16.80;25.10
7476;DHT22;3779;49.216;8.650;2023-03-01T05:00:14;16.80;24.90
7476;DHT22;3779;49.216;8.650;2023-03-01T05:03:09;16.80;24.60
7476;DHT22;3779;49.216;8.650;2023-03-01T05:05:58;17.00;24.50
7476;DHT22;3779;49.216;8.650;2023-03-01T05:08:46;16.70;24.80
7476;DHT22;3779;49.216;8.650;2023-03-01T05:11:32;16.70;24.70
7476;DHT22;3779;49.216;8.650;2023-03-01T05:14:21;16.70;24.40
7476;DHT22;3779;49.216;8.650;2023-03-01T05:17:09;16.70;24.40
7476;DHT22;3779;49.216;8.650;2023-03-01T05:19:58;16.70;24.40
7476;DHT22;3779;49.216;8.650;2023-03-01T05:22:45;16.70;24.30
7476;DHT22;3779;49.216;8.650;2023-03-01T05:25:32;16.60;24.00
7476;DHT22;3779;49.216;8.650;2023-03-01T05:28:20;16.70;24.30
7476;DHT22;3779;49.216;8.650;2023-03-01T05:31:07;16.70;24.10
7476;DHT22;3779;49.216;8.650;2023-03-01T05:33:55;16.60;24.70
7476;DHT22;3779;49.216;8.650;2023-03-01T05:36:41;17.00;24.60
7476;DHT22;3779;49.216;8.650;2023-03-01T05:39:29;16.70;24.40
7476;DHT22;3779;49.216;8.650;2023-03-01T05:42:16;16.70;24.70
7476;DHT22;3779;49.216;8.650;2023-03-01T05:45:07;16.70;24.70
7476;DHT22;3779;49.216;8.650;2023-03-01T05:47:58;16.70;24.70
7476;DHT22;3779;49.216;8.650;2023-03-01T05:50:47;16.70;25.50
7476;DHT22;3779;49.216;8.650;2023-03-01T05:53:36;16.70;24.50
7476;DHT22;3779;49.216;8.650;2023-03-01T05:56:25;16.70;23.80
7476;DHT22;3779;49.216;8.650;2023-03-01T05:59:12;16.80;25.30
7476;DHT22;3779;49.216;8.650;2023-03-01T06:02:00;16.80;24.30
7476;DHT22;3779;49.216;8.650;2023-03-01T06:04:48;16.80;24.40
7476;DHT22;3779;49.216;8.650;2023-03-01T06:07:34;16.80;24.00
7476;DHT22;3779;49.216;8.650;2023-03-01T06:10:21;16.80;23.70
7476;DHT22;3779;49.216;8.650;2023-03-01T06:13:09;16.80;24.10
7476;DHT22;3779;49.216;8.650;2023-03-01T06:15:55;16.80;24.00
7476;DHT22;3779;49.216;8.650;2023-03-01T06:18:41;17.10;24.10
7476;DHT22;3779;49.216;8.650;2023-03-01T06:21:27;16.70;23.90
7476;DHT22;3779;49.216;8.650;2023-03-01T06:24:13;16.70;23.80
7476;DHT22;3779;49.216;8.650;2023-03-01T06:26:59;16.70;24.00
7476;DHT22;3779;49.216;8.650;2023-03-01T06:29:45;16.70;24.00
7476;DHT22;3779;49.216;8.650;2023-03-01T06:32:31;16.80;24.00
7476;DHT22;3779;49.216;8.650;2023-03-01T06:35:18;16.70;24.40
7476;DHT22;3779;49.216;8.650;2023-03-01T06:38:05;16.60;23.90
7476;DHT22;3779;49.216;8.650;2023-03-01T06:40:52;16.60;23.90
7476;DHT22;3779;49.216;8.650;2023-03-01T06:43:40;16.60;24.40
7476;DHT22;3779;49.216;8.650;2023-03-01T06:46:41;16.60;24.40
7476;DHT22;3779;49.216;8.650;2023-03-01T06:49:27;16.70;24.10
7476;DHT22;3779;49.216;8.650;2023-03-01T06:52:13;16.70;24.30
7476;DHT22;3779;49.216;8.650;2023-03-01T06:55:00;16.70;24.00
7476;DHT22;3779;49.216;8.650;2023-03-01T06:57:46;16.70;24.10
7476;DHT22;3779;49.216;8.650;2023-03-01T07:00:32;17.10;27.80
7476;DHT22;3779;49.216;8.650;2023-03-01T07:03:18;16.80;24.20
7476;DHT22;3779;49.216;8.650;2023-03-01T07:06:04;16.80;24.30
7476;DHT22;3779;49.216;8.650;2023-03-01T07:08:50;16.80;26.60
7476;DHT22;3779;49.216;8.650;2023-03-01T07:11:37;16.80;24.60
7476;DHT22;3779;49.216;8.650;2023-03-01T07:14:23;16.90;25.20
7476;DHT22;3779;49.216;8.650;2023-03-01T07:17:12;16.90;25.30
7476;DHT22;3779;49.216;8.650;2023-03-01T07:19:59;16.90;24.70
7476;DHT22;3779;49.216;8.650;2023-03-01T07:22:45;17.10;25.00
7476;DHT22;3779;49.216;8.650;2023-03-01T07:25:32;16.90;24.40
7476;DHT22;3779;49.216;8.650;2023-03-01T07:28:18;16.90;26.10
7476;DHT22;3779;49.216;8.650;2023-03-01T07:31:05;17.00;25.10
7476;DHT22;3779;49.216;8.650;2023-03-01T07:33:56;17.00;25.10
7476;DHT22;3779;49.216;8.650;2023-03-01T07:36:42;17.10;25.50
7476;DHT22;3779;49.216;8.650;2023-03-01T07:39:32;17.10;27.00
7476;DHT22;3779;49.216;8.650;2023-03-01T07:42:18;17.30;29.60
7476;DHT22;3779;49.216;8.650;2023-03-01T07:45:05;17.30;25.60
7476;DHT22;3779;49.216;8.650;2023-03-01T07:47:52;17.30;25.50
7476;DHT22;3779;49.216;8.650;2023-03-01T07:50:38;17.30;26.60
7476;DHT22;3779;49.216;8.650;2023-03-01T07:53:24;17.30;24.30
7476;DHT22;3779;49.216;8.650;2023-03-01T07:56:12;17.20;24.60
7476;DHT22;3779;49.216;8.650;2023-03-01T07:58:59;17.10;24.40
7476;DHT22;3779;49.216;8.650;2023-03-01T08:01:44;17.10;24.40
7476;DHT22;3779;49.216;8.650;2023-03-01T08:04:31;17.10;24.60
7476;DHT22;3779;49.216;8.650;2023-03-01T08:07:18;17.00;24.30
7476;DHT22;3779;49.216;8.650;2023-03-01T08:10:04;17.10;28.40
7476;DHT22;3779;49.216;8.650;2023-03-01T08:12:51;17.10;27.50
7476;DHT22;3779;49.216;8.650;2023-03-01T08:15:39;17.30;26.00
7476;DHT22;3779;49.216;8.650;2023-03-01T08:18:25;17.40;26.80
7476;DHT22;3779;49.216;8.650;2023-03-01T08:21:13;17.40;26.00
7476;DHT22;3779;49.216;8.650;2023-03-01T08:24:02;17.50;27.90
7476;DHT22;3779;49.216;8.650;2023-03-01T08:26:48;17.50;25.50
7476;DHT22;3779;49.216;8.650;2023-03-01T08:29:35;17.80;26.10
7476;DHT22;3779;49.216;8.650;2023-03-01T08:32:22;17.50;28.00
7476;DHT22;3779;49.216;8.650;2023-03-01T08:35:08;17.60;27.90
7476;DHT22;3779;49.216;8.650;2023-03-01T08:37:54;17.60;27.90
7476;DHT22;3779;49.216;8.650;2023-03-01T08:40:40;17.80;27.60
7476;DHT22;3779;49.216;8.650;2023-03-01T08:43:26;17.80;35.50
7476;DHT22;3779;49.216;8.650;2023-03-01T08:46:13;17.80;31.20
7476;DHT22;3779;49.216;8.650;2023-03-01T08:48:59;18.00;32.80
7476;DHT22;3779;49.216;8.650;2023-03-01T08:51:46;18.00;32.60
7476;DHT22;3779;49.216;8.650;2023-03-01T08:54:32;18.10;31.40
7476;DHT22;3779;49.216;8.650;2023-03-01T08:57:19;18.20;32.00
7476;DHT22;3779;49.216;8.650;2023-03-01T09:00:06;18.20;33.90
7476;DHT22;3779;49.216;8.650;2023-03-01T09:02:54;18.30;34.00
7476;DHT22;3779;49.216;8.650;2023-03-01T09:05:40;18.30;32.30
7476;DHT22;3779;49.216;8.650;2023-03-01T09:08:26;18.30;29.40
7476;DHT22;3779;49.216;8.650;2023-03-01T09:11:15;18.20;28.10
7476;DHT22;3779;49.216;8.650;2023-03-01T09:14:05;18.10;28.40
7476;DHT22;3779;49.216;8.650;2023-03-01T09:16:51;18.10;30.60
7476;DHT22;3779;49.216;8.650;2023-03-01T09:19:38;18.20;29.10
7476;DHT22;3779;49.216;8.650;2023-03-01T09:22:23;18.10;27.00
7476;DHT22;3779;49.216;8.650;2023-03-01T09:25:09;18.10;29.10
7476;DHT22;3779;49.216;8.650;2023-03-01T09:27:56;18.10;28.70
7476;DHT22;3779;49.216;8.650;2023-03-01T09:30:41;18.10;27.60
7476;DHT22;3779;49.216;8.650;2023-03-01T09:33:30;18.10;27.90
7476;DHT22;3779;49.216;8.650;2023-03-01T09:36:19;18.10;26.50
7476;DHT22;3779;49.216;8.650;2023-03-01T09:39:06;18.10;27.00
7476;DHT22;3779;49.216;8.650;2023-03-01T09:41:59;18.00;25.90
7476;DHT22;3779;49.216;8.650;2023-03-01T09:45:32;17.90;29.40
7476;DHT22;3779;49.216;8.650;2023-03-01T09:48:23;18.00;28.80
7476;DHT22;3779;49.216;8.650;2023-03-01T09:51:17;18.00;27.90
7476;DHT22;3779;49.216;8.650;2023-03-01T09:54:05;18.10;29.30
7476;DHT22;3779;49.216;8.650;2023-03-01T10:00:12;18.20;27.00
7476;DHT22;3779;49.216;8.650;2023-03-01T10:03:22;18.20;30.70
7476;DHT22;3779;49.216;8.650;2023-03-01T10:06:21;18.20;27.90
7476;DHT22;3779;49.216;8.650;2023-03-01T10:09:14;18.20;29.80
7476;DHT22;3779;49.216;8.650;2023-03-01T10:12:07;18.30;27.50
7476;DHT22;3779;49.216;8.650;2023-03-01T10:14:59;18.20;32.20
7476;DHT22;3779;49.216;8.650;2023-03-01T10:18:06;18.30;32.50
7476;DHT22;3779;49.216;8.650;2023-03-01T10:21:00;18.40;32.20
7476;DHT22;3779;49.216;8.650;2023-03-01T10:23:47;18.40;34.00
7476;DHT22;3779;49.216;8.650;2023-03-01T10:26:55;18.50;25.80
7476;DHT22;3779;49.216;8.650;2023-03-01T10:30:04;18.30;24.80
7476;DHT22;3779;49.216;8.650;2023-03-01T10:32:53;18.10;27.80
7476;DHT22;3779;49.216;8.650;2023-03-01T10:35:39;18.10;25.10
7476;DHT22;3779;49.216;8.650;2023-03-01T10:38:30;18.20;32.60
7476;DHT22;3779;49.216;8.650;2023-03-01T10:41:17;18.00;34.80
7476;DHT22;3779;49.216;8.650;2023-03-01T10:44:03;18.20;34.80
7476;DHT22;3779;49.216;8.650;2023-03-01T10:46:59;18.30;32.70
7476;DHT22;3779;49.216;8.650;2023-03-01T10:49:59;18.40;34.00
7476;DHT22;3779;49.216;8.650;2023-03-01T10:52:56;18.40;34.60
7476;DHT22;3779;49.216;8.650;2023-03-01T10:55:43;18.40;33.60
7476;DHT22;3779;49.216;8.650;2023-03-01T10:58:30;18.40;33.80
7476;DHT22;3779;49.216;8.650;2023-03-01T11:06:59;18.40;34.20
7476;DHT22;3779;49.216;8.650;2023-03-01T11:09:45;18.50;32.00
7476;DHT22;3779;49.216;8.650;2023-03-01T11:12:31;18.50;31.50
7476;DHT22;3779;49.216;8.650;2023-03-01T11:15:26;18.50;33.60
7476;DHT22;3779;49.216;8.650;2023-03-01T11:18:21;18.50;30.50
7476;DHT22;3779;49.216;8.650;2023-03-01T11:21:09;18.50;26.50
7476;DHT22;3779;49.216;8.650;2023-03-01T11:23:55;18.40;28.30
7476;DHT22;3779;49.216;8.650;2023-03-01T11:26:51;18.30;28.00
7476;DHT22;3779;49.216;8.650;2023-03-01T11:29:48;18.30;28.50
7476;DHT22;3779;49.216;8.650;2023-03-01T11:33:04;18.30;27.20
7476;DHT22;3779;49.216;8.650;2023-03-01T11:36:00;18.20;32.40
7476;DHT22;3779;49.216;8.650;2023-03-01T11:38:47;18.20;29.90
7476;DHT22;3779;49.216;8.650;2023-03-01T11:41:36;18.30;28.00
7476;DHT22;3779;49.216;8.650;2023-03-01T11:44:28;18.20;28.50
7476;DHT22;3779;49.216;8.650;2023-03-01T11:47:59;18.20;30.60
7476;DHT22;3779;49.216;8.650;2023-03-01T11:50:46;18.30;33.90
7476;DHT22;3779;49.216;8.650;2023-03-01T11:57:02;18.30;27.30
7476;DHT22;3779;49.216;8.650;2023-03-01T12:00:03;18.30;31.50
7476;DHT22;3779;49.216;8.650;2023-03-01T12:03:29;18.30;32.50
7476;DHT22;3779;49.216;8.650;2023-03-01T12:06:33;18.30;28.90
7476;DHT22;3779;49.216;8.650;2023-03-01T12:12:58;18.20;37.00
7476;DHT22;3779;49.216;8.650;2023-03-01T12:31:07;18.40;37.20
7476;DHT22;3779;49.216;8.650;2023-03-01T12:46:19;18.60;29.40
7476;DHT22;3779;49.216;8.650;2023-03-01T12:49:32;18.30;26.30
7476;DHT22;3779;49.216;8.650;2023-03-01T12:52:46;18.20;27.50
7476;DHT22;3779;49.216;8.650;2023-03-01T12:58:32;18.00;26.90
7476;DHT22;3779;49.216;8.650;2023-03-01T13:05:10;18.00;27.00
7476;DHT22;3779;49.216;8.650;2023-03-01T13:08:12;18.00;28.10
7476;DHT22;3779;49.216;8.650;2023-03-01T13:11:05;18.10;32.30
7476;DHT22;3779;49.216;8.650;2023-03-01T13:13:51;18.20;29.90
7476;DHT22;3779;49.216;8.650;2023-03-01T13:16:41;18.20;29.90
7476;DHT22;3779;49.216;8.650;2023-03-01T13:19:30;18.30;31.00
7476;DHT22;3779;49.216;8.650;2023-03-01T13:22:32;18.30;27.80
7476;DHT22;3779;49.216;8.650;2023-03-01T13:25:19;18.20;29.10
7476;DHT22;3779;49.216;8.650;2023-03-01T13:34:44;18.20;26.90
7476;DHT22;3779;49.216;8.650;2023-03-01T13:37:33;18.30;28.60
7476;DHT22;3779;49.216;8.650;2023-03-01T13:43:27;18.30;29.20
7476;DHT22;3779;49.216;8.650;2023-03-01T13:46:20;18.30;33.10
7476;DHT22;3779;49.216;8.650;2023-03-01T13:49:13;18.30;34.50
7476;DHT22;3779;49.216;8.650;2023-03-01T13:52:00;18.30;36.10
7476;DHT22;3779;49.216;8.650;2023-03-01T13:54:47;18.50;31.80
7476;DHT22;3779;49.216;8.650;2023-03-01T13:57:35;18.70;25.80
7476;DHT22;3779;49.216;8.650;2023-03-01T14:00:39;18.70;24.40
7476;DHT22;3779;49.216;8.650;2023-03-01T14:03:26;18.60;24.60
7476;DHT22;3779;49.216;8.650;2023-03-01T14:06:15;18.50;30.40
7476;DHT22;3779;49.216;8.650;2023-03-01T14:09:37;18.40;34.70
7476;DHT22;3779;49.216;8.650;2023-03-01T14:12:43;18.50;32.00
7476;DHT22;3779;49.216;8.650;2023-03-01T14:15:40;18.60;32.90
7476;DHT22;3779;49.216;8.650;2023-03-01T14:21:42;18.60;33.90
7476;DHT22;3779;49.216;8.650;2023-03-01T14:24:29;18.60;32.80
7476;DHT22;3779;49.216;8.650;2023-03-01T14:27:18;18.60;32.40
7476;DHT22;3779;49.216;8.650;2023-03-01T14:30:22;18.70;29.80
7476;DHT22;3779;49.216;8.650;2023-03-01T14:36:16;18.50;33.30
7476;DHT22;3779;49.216;8.650;2023-03-01T14:39:27;18.40;36.60
7476;DHT22;3779;49.216;8.650;2023-03-01T14:42:15;18.40;28.90
7476;DHT22;3779;49.216;8.650;2023-03-01T14:45:03;18.40;30.90
7476;DHT22;3779;49.216;8.650;2023-03-01T14:47:52;18.40;33.80
7476;DHT22;3779;49.216;8.650;2023-03-01T14:50:43;18.50;31.80
7476;DHT22;3779;49.216;8.650;2023-03-01T14:53:30;18.60;32.80
7476;DHT22;3779;49.216;8.650;2023-03-01T14:56:17;18.60;34.40
7476;DHT22;3779;49.216;8.650;2023-03-01T14:59:03;18.60;32.80
7476;DHT22;3779;49.216;8.650;2023-03-01T15:01:50;18.60;33.20
7476;DHT22;3779;49.216;8.650;2023-03-01T15:04:37;18.60;28.70
7476;DHT22;3779;49.216;8.650;2023-03-01T15:07:35;18.60;26.80
7476;DHT22;3779;49.216;8.650;2023-03-01T15:10:26;18.50;28.50
7476;DHT22;3779;49.216;8.650;2023-03-01T15:13:25;18.40;28.50
7476;DHT22;3779;49.216;8.650;2023-03-01T15:16:15;18.40;29.10
7476;DHT22;3779;49.216;8.650;2023-03-01T15:19:05;18.40;29.30
7476;DHT22;3779;49.216;8.650;2023-03-01T15:21:52;18.40;28.80
7476;DHT22;3779;49.216;8.650;2023-03-01T15:24:38;18.40;28.60
7476;DHT22;3779;49.216;8.650;2023-03-01T15:27:25;18.40;27.20
7476;DHT22;3779;49.216;8.650;2023-03-01T15:39:31;18.50;30.40
7476;DHT22;3779;49.216;8.650;2023-03-01T15:42:35;18.50;30.70
7476;DHT22;3779;49.216;8.650;2023-03-01T15:45:24;18.60;28.70
7476;DHT22;3779;49.216;8.650;2023-03-01T15:48:17;18.50;29.30
7476;DHT22;3779;49.216;8.650;2023-03-01T15:51:12;18.40;31.60
7476;DHT22;3779;49.216;8.650;2023-03-01T15:54:05;18.50;29.40
7476;DHT22;3779;49.216;8.650;2023-03-01T15:56:52;18.50;27.00
7476;DHT22;3779;49.216;8.650;2023-03-01T15:59:37;18.40;29.30
7476;DHT22;3779;49.216;8.650;2023-03-01T16:02:24;18.40;29.30
7476;DHT22;3779;49.216;8.650;2023-03-01T16:05:23;18.40;29.80
7476;DHT22;3779;49.216;8.650;2023-03-01T16:08:10;18.40;30.90
7476;DHT22;3779;49.216;8.650;2023-03-01T16:10:56;18.50;29.60
7476;DHT22;3779;49.216;8.650;2023-03-01T16:13:42;18.50;32.50
7476;DHT22;3779;49.216;8.650;2023-03-01T16:16:28;18.60;31.90
7476;DHT22;3779;49.216;8.650;2023-03-01T16:19:16;18.60;31.70
7476;DHT22;3779;49.216;8.650;2023-03-01T16:22:03;18.60;29.70
7476;DHT22;3779;49.216;8.650;2023-03-01T16:24:49;18.60;29.50
7476;DHT22;3779;49.216;8.650;2023-03-01T16:27:35;18.60;28.80
7476;DHT22;3779;49.216;8.650;2023-03-01T16:30:22;18.60;28.30
7476;DHT22;3779;49.216;8.650;2023-03-01T16:33:09;18.50;30.00
7476;DHT22;3779;49.216;8.650;2023-03-01T16:35:55;18.50;29.10
7476;DHT22;3779;49.216;8.650;2023-03-01T16:38:41;18.40;27.90
7476;DHT22;3779;49.216;8.650;2023-03-01T16:41:28;18.40;27.80
7476;DHT22;3779;49.216;8.650;2023-03-01T16:44:15;18.40;28.40
7476;DHT22;3779;49.216;8.650;2023-03-01T16:47:01;18.30;25.30
7476;DHT22;3779;49.216;8.650;2023-03-01T16:49:47;18.30;28.30
7476;DHT22;3779;49.216;8.650;2023-03-01T16:52:38;18.30;28.70
7476;DHT22;3779;49.216;8.650;2023-03-01T16:55:25;18.40;29.40
7476;DHT22;3779;49.216;8.650;2023-03-01T16:58:11;18.40;30.60
7476;DHT22;3779;49.216;8.650;2023-03-01T17:01:03;18.50;29.80
7476;DHT22;3779;49.216;8.650;2023-03-01T17:03:49;18.50;28.80
7476;DHT22;3779;49.216;8.650;2023-03-01T17:06:35;18.50;29.40
7476;DHT22;3779;49.216;8.650;2023-03-01T17:09:21;18.40;25.70
7476;DHT22;3779;49.216;8.650;2023-03-01T17:12:07;18.40;29.40
7476;DHT22;3779;49.216;8.650;2023-03-01T17:14:53;18.40;28.40
7476;DHT22;3779;49.216;8.650;2023-03-01T17:17:39;18.40;28.70
7476;DHT22;3779;49.216;8.650;2023-03-01T17:20:25;18.50;28.80
7476;DHT22;3779;49.216;8.650;2023-03-01T17:23:11;18.40;28.20
7476;DHT22;3779;49.216;8.650;2023-03-01T17:25:58;18.40;28.20
7476;DHT22;3779;49.216;8.650;2023-03-01T17:28:44;18.40;28.10
7476;DHT22;3779;49.216;8.650;2023-03-01T17:31:31;18.40;28.10
7476;DHT22;3779;49.216;8.650;2023-03-01T17:34:18;18.40;28.20
7476;DHT22;3779;49.216;8.650;2023-03-01T17:37:04;18.30;27.80
7476;DHT22;3779;49.216;8.650;2023-03-01T17:39:50;18.30;27.10
7476;DHT22;3779;49.216;8.650;2023-03-01T17:42:36;18.30;27.20
7476;DHT22;3779;49.216;8.650;2023-03-01T17:45:22;18.10;24.90
7476;DHT22;3779;49.216;8.650;2023-03-01T17:48:09;18.00;28.30
7476;DHT22;3779;49.216;8.650;2023-03-01T17:50:55;18.00;27.80
7476;DHT22;3779;49.216;8.650;2023-03-01T17:53:41;18.10;27.40
7476;DHT22;3779;49.216;8.650;2023-03-01T17:56:27;18.10;27.20
7476;DHT22;3779;49.216;8.650;2023-03-01T17:59:14;18.10;27.50
7476;DHT22;3779;49.216;8.650;2023-03-01T18:02:04;18.10;27.50
7476;DHT22;3779;49.216;8.650;2023-03-01T18:04:51;18.10;27.40
7476;DHT22;3779;49.216;8.650;2023-03-01T18:07:38;18.00;28.40
7476;DHT22;3779;49.216;8.650;2023-03-01T18:10:26;18.10;28.20
7476;DHT22;3779;49.216;8.650;2023-03-01T18:13:12;18.10;27.40
7476;DHT22;3779;49.216;8.650;2023-03-01T18:16:06;18.00;27.30
7476;DHT22;3779;49.216;8.650;2023-03-01T18:18:53;18.00;27.60
7476;DHT22;3779;49.216;8.650;2023-03-01T18:21:39;17.90;27.50
7476;DHT22;3779;49.216;8.650;2023-03-01T18:24:25;17.90;27.30
7476;DHT22;3779;49.216;8.650;2023-03-01T18:27:12;17.80;27.40
7476;DHT22;3779;49.216;8.650;2023-03-01T18:30:00;17.80;28.10
7476;DHT22;3779;49.216;8.650;2023-03-01T18:32:47;17.80;27.80
7476;DHT22;3779;49.216;8.650;2023-03-01T18:35:38;17.80;27.50
7476;DHT22;3779;49.216;8.650;2023-03-01T18:38:24;17.70;27.90
7476;DHT22;3779;49.216;8.650;2023-03-01T18:41:11;17.70;27.30
7476;DHT22;3779;49.216;8.650;2023-03-01T18:43:57;17.60;27.10
7476;DHT22;3779;49.216;8.650;2023-03-01T18:46:43;17.60;27.50
7476;DHT22;3779;49.216;8.650;2023-03-01T18:49:30;17.60;27.10
7476;DHT22;3779;49.216;8.650;2023-03-01T18:52:16;17.50;27.30
7476;DHT22;3779;49.216;8.650;2023-03-01T18:55:03;17.60;27.30
7476;DHT22;3779;49.216;8.650;2023-03-01T18:57:49;17.50;27.40
7476;DHT22;3779;49.216;8.650;2023-03-01T19:00:38;17.50;27.10
7476;DHT22;3779;49.216;8.650;2023-03-01T19:03:27;17.50;27.20
7476;DHT22;3779;49.216;8.650;2023-03-01T19:06:19;17.50;27.10
7476;DHT22;3779;49.216;8.650;2023-03-01T19:09:07;17.50;27.60
7476;DHT22;3779;49.216;8.650;2023-03-01T19:11:56;17.40;27.70
7476;DHT22;3779;49.216;8.650;2023-03-01T19:14:45;17.40;27.60
7476;DHT22;3779;49.216;8.650;2023-03-01T19:17:31;17.40;27.80
7476;DHT22;3779;49.216;8.650;2023-03-01T19:20:18;17.40;27.80
7476;DHT22;3779;49.216;8.650;2023-03-01T19:23:04;17.50;27.80
7476;DHT22;3779;49.216;8.650;2023-03-01T19:25:50;17.50;27.60
7476;DHT22;3779;49.216;8.650;2023-03-01T19:28:36;17.50;27.70
7476;DHT22;3779;49.216;8.650;2023-03-01T19:31:26;17.40;27.90
7476;DHT22;3779;49.216;8.650;2023-03-01T19:34:13;17.50;28.20
7476;DHT22;3779;49.216;8.650;2023-03-01T19:36:59;17.50;28.80
7476;DHT22;3779;49.216;8.650;2023-03-01T19:39:45;17.70;28.70
7476;DHT22;3779;49.216;8.650;2023-03-01T19:42:32;17.80;28.60
7476;DHT22;3779;49.216;8.650;2023-03-01T19:45:23;17.90;28.80
7476;DHT22;3779;49.216;8.650;2023-03-01T19:48:09;18.00;28.50